createdAt,value
2024-05-09T00:02:05.655Z,5.50
2024-05-09T00:04:51.449Z,6.47
2024-05-09T00:07:36.972Z,5.03
2024-05-09T00:10:29.092Z,3.77
2024-05-09T00:13:21.030Z,4.07
2024-05-09T00:16:07.222Z,6.80
2024-05-09T00:18:53.322Z,5.17
2024-05-09T00:21:43.149Z,5.87
2024-05-09T00:24:28.616Z,5.27
2024-05-09T00:27:14.360Z,4.93
2024-05-09T00:30:00.122Z,6.77
2024-05-09T00:32:45.887Z,10.33
2024-05-09T00:35:31.496Z,4.67
2024-05-09T00:38:17.082Z,7.33
2024-05-09T00:41:02.973Z,3.93
2024-05-09T00:43:48.532Z,5.60
2024-05-09T00:46:34.619Z,4.53
2024-05-09T00:49:22.056Z,6.43
2024-05-09T00:52:09.478Z,5.70
2024-05-09T00:54:58.167Z,7.13
2024-05-09T00:57:44.788Z,7.97
2024-05-09T01:00:35.890Z,5.67
2024-05-09T01:03:25.615Z,9.20
2024-05-09T01:06:11.777Z,6.43
2024-05-09T01:08:57.506Z,3.93
2024-05-09T01:11:42.576Z,4.97
2024-05-09T01:14:28.250Z,6.47
2024-05-09T01:17:14.297Z,6.27
2024-05-09T01:19:59.608Z,5.80
2024-05-09T01:22:45.630Z,4.00
2024-05-09T01:25:32.918Z,5.20
2024-05-09T01:28:18.819Z,5.50
2024-05-09T01:31:04.446Z,5.97
2024-05-09T01:33:49.965Z,8.20
2024-05-09T01:36:35.263Z,6.53
2024-05-09T01:39:20.753Z,5.53
2024-05-09T01:42:06.250Z,5.97
2024-05-09T01:44:52.027Z,6.60
2024-05-09T01:47:37.771Z,7.83
2024-05-09T01:50:35.722Z,5.10
2024-05-09T01:53:24.745Z,5.33
2024-05-09T01:56:10.448Z,5.77
2024-05-09T01:58:55.864Z,7.20
2024-05-09T02:01:56.210Z,3.93
2024-05-09T02:04:46.663Z,7.77
2024-05-09T02:07:32.433Z,5.33
2024-05-09T02:10:23.525Z,4.57
2024-05-09T02:13:16.572Z,5.30
2024-05-09T02:16:01.905Z,5.83
2024-05-09T02:18:47.659Z,5.67
2024-05-09T02:21:34.344Z,5.93
2024-05-09T02:24:19.948Z,5.17
2024-05-09T02:27:05.438Z,6.43
2024-05-09T02:29:50.654Z,4.80
2024-05-09T02:32:35.838Z,4.63
2024-05-09T02:35:21.594Z,6.50
2024-05-09T02:38:09.258Z,7.97
2024-05-09T02:40:54.836Z,8.33
2024-05-09T02:43:40.355Z,4.47
2024-05-09T02:46:25.807Z,5.40
2024-05-09T02:49:11.887Z,5.73
2024-05-09T02:51:57.424Z,7.07
2024-05-09T02:54:43.203Z,5.00
2024-05-09T02:57:28.881Z,9.17
2024-05-09T03:00:19.101Z,4.97
2024-05-09T03:03:13.786Z,5.07
2024-05-09T03:06:02.402Z,5.20
2024-05-09T03:08:48.029Z,6.57
2024-05-09T03:11:33.559Z,5.20
2024-05-09T03:14:19.563Z,4.63
2024-05-09T03:17:05.586Z,8.03
2024-05-09T03:19:51.249Z,4.53
2024-05-09T03:22:36.763Z,6.30
2024-05-09T03:25:22.170Z,6.43
2024-05-09T03:28:07.663Z,5.13
2024-05-09T03:30:52.849Z,7.67
2024-05-09T03:33:38.465Z,5.23
2024-05-09T03:36:24.055Z,6.90
2024-05-09T03:39:12.543Z,4.30
2024-05-09T03:41:57.954Z,5.27
2024-05-09T03:44:43.539Z,6.87
2024-05-09T03:47:28.874Z,5.23
2024-05-09T03:50:22.005Z,4.33
2024-05-09T03:53:13.121Z,4.13
2024-05-09T03:55:58.892Z,5.20
2024-05-09T03:58:44.509Z,5.57
2024-05-09T04:01:30.399Z,4.10
2024-05-09T04:04:16.061Z,5.97
2024-05-09T04:07:01.483Z,5.90
2024-05-09T04:09:47.150Z,6.40
2024-05-09T04:12:32.216Z,6.23
2024-05-09T04:15:17.910Z,6.37
2024-05-09T04:18:03.456Z,5.40
2024-05-09T04:20:49.371Z,6.70
2024-05-09T04:23:34.943Z,9.77
2024-05-09T04:26:20.312Z,5.27
2024-05-09T04:29:05.976Z,4.93
2024-05-09T04:31:51.681Z,7.43
2024-05-09T04:34:37.527Z,7.40
2024-05-09T04:37:22.920Z,7.80
2024-05-09T04:40:14.191Z,6.93
2024-05-09T04:43:07.001Z,6.23
2024-05-09T04:45:53.659Z,9.43
2024-05-09T04:48:38.820Z,7.37
2024-05-09T04:51:24.435Z,6.37
2024-05-09T04:54:15.681Z,7.97
2024-05-09T04:57:07.330Z,6.67
2024-05-09T04:59:52.875Z,9.63
2024-05-09T05:02:38.570Z,10.27
2024-05-09T05:05:23.993Z,8.33
2024-05-09T05:08:13.973Z,10.47
2024-05-09T05:11:00.024Z,9.80
2024-05-09T05:13:45.794Z,9.30
2024-05-09T05:16:31.530Z,9.53
2024-05-09T05:19:17.793Z,11.90
2024-05-09T05:22:03.180Z,15.63
2024-05-09T05:24:48.724Z,16.93
2024-05-09T05:27:33.994Z,18.13
2024-05-09T05:30:24.982Z,17.20
2024-05-09T05:33:16.160Z,18.40
2024-05-09T05:36:01.922Z,24.83
2024-05-09T05:38:47.490Z,41.37
2024-05-09T05:41:33.089Z,22.00
2024-05-09T05:44:18.642Z,21.20
2024-05-09T05:47:04.312Z,15.83
2024-05-09T05:49:49.614Z,22.47
2024-05-09T05:52:35.176Z,20.17
2024-05-09T05:55:20.808Z,16.17
2024-05-09T05:58:10.261Z,15.97
2024-05-09T06:00:56.145Z,14.37
2024-05-09T06:03:41.776Z,16.97
2024-05-09T06:06:27.193Z,16.83
2024-05-09T06:09:12.850Z,15.53
2024-05-09T06:11:58.265Z,16.23
2024-05-09T06:14:44.340Z,16.70
2024-05-09T06:17:29.739Z,15.83
2024-05-09T06:20:20.721Z,17.63
2024-05-09T06:23:14.160Z,16.80
2024-05-09T06:26:00.085Z,16.27
2024-05-09T06:28:45.452Z,14.40
2024-05-09T06:31:31.011Z,14.37
2024-05-09T06:34:18.790Z,16.50
2024-05-09T06:37:04.526Z,14.50
2024-05-09T06:39:49.939Z,11.13
2024-05-09T06:42:35.486Z,11.03
2024-05-09T06:45:21.179Z,9.70
2024-05-09T06:48:07.681Z,10.57
2024-05-09T06:50:53.371Z,11.40
2024-05-09T06:53:39.986Z,11.63
2024-05-09T06:56:25.263Z,10.20
2024-05-09T06:59:10.911Z,9.67
2024-05-09T07:01:56.431Z,9.47
2024-05-09T07:04:42.320Z,9.67
2024-05-09T07:07:27.924Z,12.63
2024-05-09T07:10:21.667Z,9.20
2024-05-09T07:13:12.211Z,8.93
2024-05-09T07:15:58.053Z,10.40
2024-05-09T07:18:43.970Z,12.27
2024-05-09T07:21:29.449Z,13.30
2024-05-09T07:24:14.854Z,9.77
2024-05-09T07:27:00.584Z,11.53
2024-05-09T07:29:45.825Z,11.30
2024-05-09T07:32:31.346Z,13.27
2024-05-09T07:35:16.893Z,13.97
2024-05-09T07:38:02.621Z,17.37
2024-05-09T07:40:48.670Z,14.27
2024-05-09T07:43:34.105Z,15.63
2024-05-09T07:47:14.496Z,13.20
2024-05-09T07:53:29.721Z,17.03
2024-05-09T07:55:19.431Z,14.97
2024-05-09T07:58:04.993Z,13.47
2024-05-09T08:00:50.347Z,17.33
2024-05-09T08:03:36.122Z,17.37
2024-05-09T08:06:23.649Z,16.13
2024-05-09T08:09:13.882Z,18.07
2024-05-09T08:12:04.890Z,16.13
2024-05-09T08:14:50.515Z,16.33
2024-05-09T08:17:35.987Z,18.23
2024-05-09T08:20:30.153Z,12.73
2024-05-09T08:23:17.766Z,16.43
2024-05-09T08:26:03.344Z,13.97
2024-05-09T08:28:49.077Z,16.07
2024-05-09T08:31:38.584Z,13.83
2024-05-09T08:34:23.783Z,12.10
2024-05-09T08:37:15.491Z,15.63
2024-05-09T08:40:08.544Z,12.20
2024-05-09T08:42:57.756Z,13.47
2024-05-09T08:45:44.960Z,15.80
2024-05-09T08:48:34.434Z,13.23
2024-05-09T08:51:20.279Z,14.00
2024-05-09T08:54:05.727Z,14.40
2024-05-09T08:56:51.593Z,12.63
2024-05-09T08:59:44.728Z,14.70
2024-05-09T09:02:31.740Z,14.60
2024-05-09T09:05:17.979Z,13.43
2024-05-09T09:08:07.560Z,14.47
2024-05-09T09:10:57.593Z,11.87
2024-05-09T09:13:43.387Z,11.23
2024-05-09T09:16:35.727Z,14.80
2024-05-09T09:19:23.571Z,11.23
2024-05-09T09:22:09.374Z,15.80
2024-05-09T09:24:55.347Z,14.13
2024-05-09T09:27:41.251Z,12.80
2024-05-09T09:30:35.140Z,11.57
2024-05-09T09:33:23.301Z,11.67
2024-05-09T09:36:11.202Z,11.50
2024-05-09T09:38:57.783Z,15.27
2024-05-09T09:41:47.246Z,13.57
2024-05-09T09:44:34.218Z,13.37
2024-05-09T09:47:20.649Z,12.53
2024-05-09T09:50:14.142Z,10.75
2024-05-09T09:53:05.017Z,13.50
2024-05-09T09:55:52.133Z,13.87
2024-05-09T09:58:40.122Z,12.85
2024-05-09T10:01:25.598Z,13.73
2024-05-09T10:04:12.938Z,13.93
2024-05-09T10:07:01.410Z,12.63
2024-05-09T10:09:47.263Z,11.00
2024-05-09T10:12:32.657Z,15.30
2024-05-09T10:15:19.951Z,12.55
2024-05-09T10:18:08.473Z,13.45
2024-05-09T10:20:54.601Z,13.45
2024-05-09T10:23:39.842Z,13.65
2024-05-09T10:26:32.191Z,10.90
2024-05-09T10:29:19.281Z,9.93
2024-05-09T10:32:04.833Z,11.40
2024-05-09T10:35:21.313Z,8.85
2024-05-09T10:38:07.470Z,15.45
2024-05-09T10:40:56.680Z,9.07
2024-05-09T10:43:42.102Z,12.30
2024-05-09T10:46:27.423Z,9.85
2024-05-09T10:49:16.917Z,12.07
2024-05-09T10:52:04.291Z,14.10
2024-05-09T10:54:54.194Z,9.18
2024-05-09T10:57:43.389Z,9.65
2024-05-09T11:00:36.017Z,10.57
2024-05-09T11:03:26.167Z,10.65
2024-05-09T11:06:11.639Z,10.67
2024-05-09T11:08:57.743Z,9.45
2024-05-09T11:11:43.283Z,9.00
2024-05-09T11:14:28.613Z,8.30
2024-05-09T11:17:14.254Z,15.23
2024-05-09T11:20:00.416Z,9.13
2024-05-09T11:22:45.759Z,8.23
2024-05-09T11:25:33.169Z,11.37
2024-05-09T11:28:19.346Z,9.18
2024-05-09T11:31:10.412Z,7.50
2024-05-09T11:33:56.456Z,7.65
2024-05-09T11:36:41.992Z,9.15
2024-05-09T11:39:27.758Z,7.40
2024-05-09T11:42:14.309Z,9.43
2024-05-09T11:45:00.456Z,9.63
2024-05-09T11:47:46.547Z,11.02
2024-05-09T11:50:35.578Z,9.20
2024-05-09T11:53:21.488Z,7.03
2024-05-09T11:56:07.381Z,9.05
2024-05-09T11:58:53.342Z,6.68
2024-05-09T12:01:39.022Z,7.28
2024-05-09T12:04:24.462Z,9.25
2024-05-09T12:07:12.662Z,7.97
2024-05-09T12:09:58.352Z,11.02
2024-05-09T12:12:44.023Z,9.52
2024-05-09T12:15:29.633Z,7.88
2024-05-09T12:18:15.356Z,6.30
2024-05-09T12:21:01.523Z,6.82
2024-05-09T12:23:47.272Z,4.68
2024-05-09T12:26:32.810Z,6.88
2024-05-09T12:29:18.185Z,6.40
2024-05-09T12:32:03.846Z,6.70
2024-05-09T12:34:49.247Z,8.23
2024-05-09T12:37:34.443Z,7.22
2024-05-09T12:40:26.850Z,7.68
2024-05-09T12:43:19.842Z,6.82
2024-05-09T12:46:05.579Z,6.00
2024-05-09T12:48:51.864Z,5.32
2024-05-09T12:51:38.290Z,4.53
2024-05-09T12:54:23.705Z,3.90
2024-05-09T12:57:09.652Z,4.30
2024-05-09T12:59:55.719Z,8.70
2024-05-09T13:02:41.433Z,11.10
2024-05-09T13:05:27.331Z,9.32
2024-05-09T13:08:13.860Z,5.85
2024-05-09T13:10:59.442Z,4.10
2024-05-09T13:13:44.961Z,7.13
2024-05-09T13:16:30.803Z,6.20
2024-05-09T13:19:16.644Z,5.00
2024-05-09T13:22:02.541Z,3.97
2024-05-09T13:24:48.051Z,4.00
2024-05-09T13:27:33.894Z,5.35
2024-05-09T13:30:28.700Z,7.03
2024-05-09T13:33:20.813Z,3.72
2024-05-09T13:36:06.733Z,3.88
2024-05-09T13:38:52.240Z,3.38
2024-05-09T13:41:37.607Z,3.78
2024-05-09T13:44:22.894Z,3.20
2024-05-09T13:47:09.043Z,5.32
2024-05-09T13:49:54.866Z,6.47
2024-05-09T13:52:40.249Z,5.60
2024-05-09T13:55:25.657Z,3.85
2024-05-09T13:58:11.282Z,3.88
2024-05-09T14:00:56.546Z,4.47
2024-05-09T14:03:42.429Z,4.97
2024-05-09T14:06:28.058Z,5.03
2024-05-09T14:09:13.576Z,4.18
2024-05-09T14:11:59.303Z,5.95
2024-05-09T14:14:44.843Z,6.28
2024-05-09T14:17:30.805Z,11.63
2024-05-09T14:20:23.872Z,6.72
2024-05-09T14:23:17.814Z,5.97
2024-05-09T14:26:03.281Z,8.52
2024-05-09T14:28:48.834Z,8.07
2024-05-09T14:31:36.896Z,5.45
2024-05-09T14:34:24.077Z,11.63
2024-05-09T14:37:09.794Z,5.78
2024-05-09T14:39:55.131Z,4.80
2024-05-09T14:42:41.410Z,7.68
2024-05-09T14:45:26.695Z,6.47
2024-05-09T14:48:15.586Z,7.28
2024-05-09T14:51:01.031Z,6.22
2024-05-09T14:53:46.627Z,6.63
2024-05-09T14:56:31.961Z,6.28
2024-05-09T14:59:17.792Z,7.30
2024-05-09T15:02:03.647Z,9.13
2024-05-09T15:04:49.236Z,6.87
2024-05-09T15:07:34.701Z,11.68
2024-05-09T15:10:27.048Z,8.52
2024-05-09T15:13:20.790Z,5.47
2024-05-09T15:16:06.762Z,7.47
2024-05-09T15:18:52.295Z,6.32
2024-05-09T15:21:37.552Z,5.53
2024-05-09T15:24:23.151Z,8.88
2024-05-09T15:27:08.771Z,12.00
2024-05-09T15:29:54.269Z,10.05
2024-05-09T15:32:40.172Z,6.72
2024-05-09T15:35:25.337Z,9.93
2024-05-09T15:38:11.042Z,9.23
2024-05-09T15:40:56.932Z,7.85
2024-05-09T15:43:42.353Z,9.53
2024-05-09T15:46:28.220Z,9.35
2024-05-09T15:49:13.721Z,8.17
2024-05-09T15:51:59.154Z,9.68
2024-05-09T15:54:44.898Z,6.60
2024-05-09T15:57:30.322Z,10.63
2024-05-09T16:00:24.814Z,8.73
2024-05-09T16:03:21.257Z,15.90
2024-05-09T16:06:06.776Z,9.93
2024-05-09T16:08:52.127Z,7.95
2024-05-09T16:11:37.920Z,9.20
2024-05-09T16:14:23.560Z,7.87
2024-05-09T16:17:09.236Z,6.90
2024-05-09T16:19:54.896Z,7.90
2024-05-09T16:22:40.285Z,10.57
2024-05-09T16:25:25.421Z,8.57
2024-05-09T16:28:12.164Z,11.77
2024-05-09T16:30:58.264Z,9.73
2024-05-09T16:33:43.712Z,11.67
2024-05-09T16:36:29.310Z,9.45
2024-05-09T16:39:15.005Z,14.97
2024-05-09T16:42:00.042Z,8.63
2024-05-09T16:44:45.710Z,10.13
2024-05-09T16:47:31.507Z,10.67
2024-05-09T16:50:25.692Z,9.50
2024-05-09T16:53:14.352Z,10.80
2024-05-09T16:56:02.126Z,9.30
2024-05-09T16:58:47.473Z,11.43
2024-05-09T17:01:33.305Z,10.47
2024-05-09T17:04:18.861Z,11.37
2024-05-09T17:07:05.350Z,9.30
2024-05-09T17:09:50.759Z,12.07
2024-05-09T17:12:36.163Z,10.80
2024-05-09T17:15:21.627Z,12.00
2024-05-09T17:18:07.847Z,15.73
2024-05-09T17:20:53.325Z,12.63
2024-05-09T17:23:39.505Z,11.70
2024-05-09T17:26:25.623Z,13.83
2024-05-09T17:29:12.466Z,13.67
2024-05-09T17:31:58.135Z,15.00
2024-05-09T17:34:43.792Z,15.47
2024-05-09T17:37:31.182Z,13.20
2024-05-09T17:40:17.390Z,12.03
2024-05-09T17:43:08.940Z,12.23
2024-05-09T17:45:55.979Z,14.23
2024-05-09T17:48:42.220Z,11.83
2024-05-09T17:51:27.581Z,14.53
2024-05-09T17:54:13.282Z,12.07
2024-05-09T17:56:58.628Z,10.80
2024-05-09T17:59:44.043Z,12.47
2024-05-09T18:02:29.568Z,12.87
2024-05-09T18:05:15.146Z,15.47
2024-05-09T18:08:00.731Z,10.27
2024-05-09T18:10:46.582Z,14.13
2024-05-09T18:13:32.540Z,11.70
2024-05-09T18:16:18.328Z,12.87
2024-05-09T18:19:04.132Z,10.07
2024-05-09T18:21:49.767Z,11.30
2024-05-09T18:24:35.413Z,12.17
2024-05-09T18:27:21.862Z,13.50
2024-05-09T18:30:21.250Z,14.23
2024-05-09T18:33:13.975Z,12.50
2024-05-09T18:35:59.491Z,10.33
2024-05-09T18:38:45.065Z,11.20
2024-05-09T18:41:30.574Z,14.53
2024-05-09T18:44:16.177Z,13.83
2024-05-09T18:47:01.662Z,12.97
2024-05-09T18:49:47.420Z,14.00
2024-05-09T18:52:32.948Z,14.47
2024-05-09T18:55:18.837Z,12.73
2024-05-09T18:58:05.045Z,15.30
2024-05-09T19:00:53.276Z,13.07
2024-05-09T19:03:40.472Z,15.97
2024-05-09T19:06:26.195Z,13.77
2024-05-09T19:09:11.944Z,13.20
2024-05-09T19:11:57.564Z,14.30
2024-05-09T19:14:43.603Z,14.07
2024-05-09T19:17:29.583Z,16.33
2024-05-09T19:20:24.885Z,13.93
2024-05-09T19:23:14.169Z,13.53
2024-05-09T19:25:59.794Z,13.13
2024-05-09T19:28:45.182Z,13.50
2024-05-09T19:31:31.219Z,14.83
2024-05-09T19:34:16.846Z,15.27
2024-05-09T19:37:02.585Z,14.23
2024-05-09T19:39:47.950Z,13.87
2024-05-09T19:42:33.470Z,15.70
2024-05-09T19:45:19.182Z,17.30
2024-05-09T19:48:06.297Z,17.40
2024-05-09T19:50:53.254Z,15.53
2024-05-09T19:53:39.232Z,13.63
2024-05-09T19:56:24.961Z,14.70
2024-05-09T19:59:11.991Z,16.80
2024-05-09T20:01:57.808Z,17.17
2024-05-09T20:04:45.912Z,17.53
2024-05-09T20:07:33.157Z,16.57
2024-05-09T20:10:24.133Z,15.23
2024-05-09T20:13:15.045Z,16.93
2024-05-09T20:16:01.492Z,14.70
2024-05-09T20:18:47.510Z,12.83
2024-05-09T20:21:33.271Z,12.73
2024-05-09T20:24:18.753Z,11.10
2024-05-09T20:27:04.722Z,12.57
2024-05-09T20:29:50.503Z,12.60
2024-05-09T20:32:36.409Z,14.53
2024-05-09T20:35:21.874Z,10.43
2024-05-09T20:38:07.579Z,14.83
2024-05-09T20:40:53.110Z,14.77
2024-05-09T20:43:38.807Z,16.27
2024-05-09T20:46:23.875Z,12.63
2024-05-09T20:49:09.594Z,13.17
2024-05-09T20:51:55.242Z,13.57
2024-05-09T20:54:41.343Z,13.20
2024-05-09T20:57:27.063Z,14.57
2024-05-09T21:00:18.597Z,12.37
2024-05-09T21:03:07.636Z,16.63
2024-05-09T21:05:53.270Z,12.90
2024-05-09T21:08:38.855Z,15.33
2024-05-09T21:11:25.229Z,14.10
2024-05-09T21:14:10.965Z,18.50
2024-05-09T21:16:56.852Z,17.10
2024-05-09T21:19:42.369Z,16.50
2024-05-09T21:22:27.781Z,17.23
2024-05-09T21:25:13.418Z,15.60
2024-05-09T21:27:59.061Z,14.60
2024-05-09T21:30:44.468Z,19.00
2024-05-09T21:33:29.919Z,17.37
2024-05-09T21:36:15.685Z,20.77
2024-05-09T21:39:01.214Z,17.83
2024-05-09T21:41:46.866Z,15.43
2024-05-09T21:44:32.526Z,15.30
2024-05-09T21:47:18.002Z,14.93
2024-05-09T21:50:06.112Z,17.00
2024-05-09T21:52:51.319Z,20.17
2024-05-09T21:55:37.101Z,18.43
2024-05-09T21:58:23.647Z,16.57
2024-05-09T22:01:09.283Z,19.73
2024-05-09T22:03:54.756Z,19.87
2024-05-09T22:06:40.558Z,18.37
2024-05-09T22:09:26.665Z,16.30
2024-05-09T22:12:12.510Z,19.20
2024-05-09T22:14:57.991Z,18.63
2024-05-09T22:17:43.618Z,19.10
2024-05-09T22:20:36.147Z,18.63
2024-05-09T22:23:24.372Z,19.33
2024-05-09T22:26:09.560Z,19.13
2024-05-09T22:28:55.338Z,17.93
2024-05-09T22:31:40.699Z,19.03
2024-05-09T22:34:26.584Z,20.93
2024-05-09T22:37:12.217Z,22.67
2024-05-09T22:39:57.821Z,22.10
2024-05-09T22:42:43.644Z,20.77
2024-05-09T22:45:29.173Z,23.30
2024-05-09T22:48:14.872Z,23.20
2024-05-09T22:51:00.811Z,22.33
2024-05-09T22:53:46.042Z,28.37
2024-05-09T22:56:31.730Z,23.50
2024-05-09T22:59:17.494Z,25.87
2024-05-09T23:02:03.446Z,25.77
2024-05-09T23:04:49.247Z,25.63
2024-05-09T23:07:34.671Z,24.93
2024-05-09T23:10:27.494Z,27.80
2024-05-09T23:13:17.607Z,29.30
2024-05-09T23:16:03.783Z,25.57
2024-05-09T23:18:49.764Z,25.37
2024-05-09T23:21:39.121Z,29.70
2024-05-09T23:24:24.671Z,24.30
2024-05-09T23:27:10.343Z,26.70
2024-05-09T23:29:55.989Z,26.97
2024-05-09T23:32:41.771Z,24.70
2024-05-09T23:35:27.240Z,22.60
2024-05-09T23:38:13.007Z,26.30
2024-05-09T23:40:58.755Z,25.63
2024-05-09T23:43:44.163Z,26.93
2024-05-09T23:46:29.762Z,24.73
2024-05-09T23:49:15.681Z,24.77
2024-05-09T23:52:01.037Z,27.07
2024-05-09T23:54:46.742Z,24.80
2024-05-09T23:57:32.590Z,21.27
